createdAt,value
2023-04-26T05:03:12.577Z,25.00
2023-04-26T05:04:13.578Z,25.00
2023-04-26T05:05:12.579Z,25.00
2023-04-26T05:06:13.447Z,25.00
2023-04-26T05:07:13.488Z,25.00
2023-04-26T05:08:13.490Z,25.00
2023-04-26T05:09:12.600Z,0.00
2023-04-26T05:10:13.595Z,0.00
2023-04-26T05:11:13.643Z,0.00
2023-04-26T05:12:13.668Z,0.00
2023-04-26T05:13:12.666Z,0.00
2023-04-26T05:14:12.668Z,0.00
2023-04-26T05:15:13.675Z,0.00
2023-04-26T05:16:13.732Z,0.00
2023-04-26T05:17:13.721Z,0.00
2023-04-26T05:18:13.745Z,0.00
2023-04-26T05:19:12.710Z,0.00
2023-04-26T05:20:13.691Z,0.00
2023-04-26T05:21:13.692Z,0.00
2023-04-26T05:22:13.696Z,0.00
2023-04-26T05:23:13.757Z,0.00
2023-04-26T05:24:13.694Z,0.00
2023-04-26T05:25:13.704Z,0.00
2023-04-26T05:26:13.707Z,0.00
2023-04-26T05:27:12.713Z,0.00
2023-04-26T05:28:13.705Z,2.10
2023-04-26T05:29:12.727Z,25.00
2023-04-26T05:30:13.690Z,27.50
2023-04-26T05:31:13.698Z,25.40
2023-04-26T05:32:12.751Z,25.53
2023-04-26T05:33:13.774Z,26.50
2023-04-26T05:34:13.679Z,25.15
2023-04-26T05:35:12.730Z,25.16
2023-04-26T05:36:13.695Z,26.97
2023-04-26T05:37:13.675Z,24.45
2023-04-26T05:38:13.677Z,25.00
2023-04-26T05:39:13.685Z,25.00
2023-04-26T05:40:13.679Z,25.76
2023-04-26T05:41:12.666Z,25.00
2023-04-26T05:42:15.153Z,30.80
2023-04-26T05:43:12.681Z,31.56
2023-04-26T05:44:12.678Z,25.54
2023-04-26T05:45:13.657Z,26.59
2023-04-26T05:46:13.681Z,26.44
2023-04-26T05:47:12.645Z,25.59
2023-04-26T05:48:12.772Z,27.09
2023-04-26T05:49:13.630Z,25.00
2023-04-26T05:50:13.711Z,31.06
2023-04-26T05:51:13.627Z,25.66
2023-04-26T05:52:12.614Z,27.19
2023-04-26T05:53:12.602Z,28.02
2023-04-26T05:54:12.590Z,28.07
2023-04-26T05:55:13.602Z,26.38
2023-04-26T05:56:13.619Z,26.46
2023-04-26T05:57:12.642Z,28.10
2023-04-26T05:58:13.573Z,27.02
2023-04-26T05:59:13.551Z,29.39
2023-04-26T06:00:13.559Z,25.95
2023-04-26T06:01:13.536Z,26.87
2023-04-26T06:02:13.618Z,29.28
2023-04-26T06:03:14.085Z,27.93
2023-04-26T06:04:13.726Z,27.33
2023-04-26T06:05:13.634Z,26.40
2023-04-26T06:06:13.519Z,25.80
2023-04-26T06:07:13.550Z,31.43
2023-04-26T06:08:13.487Z,28.70
2023-04-26T06:09:12.534Z,28.08
2023-04-26T06:10:13.487Z,28.12
2023-04-26T06:11:12.474Z,28.34
2023-04-26T06:12:13.482Z,26.90
2023-04-26T06:13:13.469Z,28.23
2023-04-26T06:14:28.905Z,26.90
2023-04-26T06:15:13.441Z,27.27
2023-04-26T06:16:13.499Z,28.03
2023-04-26T06:17:12.463Z,28.01
2023-04-26T06:18:13.521Z,27.09
2023-04-26T06:19:12.435Z,27.37
2023-04-26T06:20:12.407Z,26.93
2023-04-26T06:21:13.413Z,28.17
2023-04-26T06:22:13.452Z,27.94
2023-04-26T06:23:12.423Z,30.81
2023-04-26T06:24:13.387Z,29.36
2023-04-26T06:25:13.385Z,26.20
2023-04-26T06:26:12.388Z,27.13
2023-04-26T06:27:13.385Z,29.27
2023-04-26T06:28:13.415Z,29.25
2023-04-26T06:29:13.358Z,30.35
2023-04-26T06:30:12.368Z,31.94
2023-04-26T06:31:12.410Z,25.00
2023-04-26T06:32:13.449Z,29.47
2023-04-26T06:33:13.361Z,29.44
2023-04-26T06:34:14.373Z,27.19
2023-04-26T06:35:13.342Z,26.41
2023-04-26T06:36:12.304Z,28.13
2023-04-26T06:37:13.306Z,28.49
2023-04-26T06:38:13.310Z,27.46
2023-04-26T06:39:13.309Z,28.02
2023-04-26T06:40:13.294Z,31.75
2023-04-26T06:41:13.288Z,29.29
2023-04-26T06:42:12.266Z,27.92
2023-04-26T06:43:13.293Z,28.54
2023-04-26T06:44:13.246Z,28.63
2023-04-26T06:45:13.271Z,26.80
2023-04-26T06:46:13.248Z,27.26
2023-04-26T06:47:13.268Z,27.96
2023-04-26T06:48:13.226Z,29.60
2023-04-26T06:49:13.225Z,27.72
2023-04-26T06:50:12.241Z,29.78
2023-04-26T06:51:13.253Z,28.37
2023-04-26T06:52:13.225Z,28.51
2023-04-26T06:53:12.378Z,28.68
2023-04-26T06:54:13.238Z,28.16
2023-04-26T06:55:12.292Z,28.53
2023-04-26T06:56:13.252Z,28.65
2023-04-26T06:57:13.283Z,27.76
2023-04-26T06:58:13.390Z,28.74
2023-04-26T06:59:13.291Z,31.20
2023-04-26T07:00:13.405Z,30.69
2023-04-26T07:01:13.366Z,28.99
2023-04-26T07:02:13.350Z,30.88
2023-04-26T07:03:13.427Z,30.33
2023-04-26T07:04:13.444Z,34.85
2023-04-26T07:05:13.534Z,31.27
2023-04-26T07:06:13.335Z,32.66
2023-04-26T07:07:13.854Z,30.25
2023-04-26T07:08:12.335Z,31.27
2023-04-26T07:09:13.308Z,30.66
2023-04-26T07:10:13.289Z,29.22
2023-04-26T07:11:12.318Z,29.94
2023-04-26T07:12:12.284Z,30.12
2023-04-26T07:13:13.282Z,30.78
2023-04-26T07:14:13.302Z,29.70
2023-04-26T07:15:13.257Z,27.51
2023-04-26T07:16:13.312Z,31.93
2023-04-26T07:17:13.256Z,29.00
2023-04-26T07:18:13.273Z,30.04
2023-04-26T07:19:13.246Z,29.12
2023-04-26T07:20:13.280Z,29.90
2023-04-26T07:21:13.244Z,30.41
2023-04-26T07:22:13.413Z,32.76
2023-04-26T07:23:12.214Z,28.65
2023-04-26T07:24:13.207Z,31.91
2023-04-26T07:25:12.195Z,29.29
2023-04-26T07:26:13.232Z,33.29
2023-04-26T07:27:12.205Z,31.08
2023-04-26T07:28:12.186Z,29.79
2023-04-26T07:29:13.180Z,32.06
2023-04-26T07:30:12.173Z,28.35
2023-04-26T07:31:13.158Z,30.14
2023-04-26T07:32:13.216Z,29.52
2023-04-26T07:33:13.265Z,31.35
2023-04-26T07:34:13.146Z,29.92
2023-04-26T07:35:13.129Z,33.71
2023-04-26T07:36:13.119Z,31.54
2023-04-26T07:37:12.115Z,29.52
2023-04-26T07:38:13.146Z,31.75
2023-04-26T07:39:12.115Z,33.18
2023-04-26T07:40:12.095Z,28.52
2023-04-26T07:41:13.145Z,28.35
2023-04-26T07:42:13.092Z,33.79
2023-04-26T07:43:13.170Z,31.30
2023-04-26T07:44:13.071Z,31.04
2023-04-26T07:45:13.125Z,35.38
2023-04-26T07:46:12.124Z,34.48
2023-04-26T07:47:13.064Z,32.64
2023-04-26T07:48:13.533Z,33.00
2023-04-26T07:49:13.037Z,31.44
2023-04-26T07:50:12.016Z,34.78
2023-04-26T07:51:13.063Z,32.54
2023-04-26T07:52:13.004Z,32.70
2023-04-26T07:53:13.422Z,34.41
2023-04-26T07:54:13.046Z,36.68
2023-04-26T07:55:12.061Z,33.47
2023-04-26T07:56:13.114Z,33.84
2023-04-26T07:57:13.038Z,34.47
2023-04-26T07:58:13.134Z,38.78
2023-04-26T07:59:13.142Z,39.39
2023-04-26T08:00:13.113Z,41.95
2023-04-26T08:01:12.152Z,43.00
2023-04-26T08:02:13.464Z,42.89
2023-04-26T08:03:12.449Z,46.52
2023-04-26T08:04:13.499Z,48.72
2023-04-26T08:05:13.630Z,51.41
2023-04-26T08:06:13.506Z,52.90
2023-04-26T08:07:13.430Z,55.40
2023-04-26T08:08:13.494Z,54.76
2023-04-26T08:09:12.534Z,55.59
2023-04-26T08:10:12.612Z,53.53
2023-04-26T08:11:13.649Z,60.27
2023-04-26T08:12:13.904Z,62.56
2023-04-26T08:13:13.785Z,61.23
2023-04-26T08:14:13.849Z,64.26
2023-04-26T08:15:13.031Z,63.07
2023-04-26T08:16:14.024Z,64.86
2023-04-26T08:17:14.056Z,65.67
2023-04-26T08:18:14.092Z,68.74
2023-04-26T08:19:14.156Z,68.97
2023-04-26T08:20:14.197Z,68.12
2023-04-26T08:21:14.290Z,66.95
2023-04-26T08:22:13.305Z,73.35
2023-04-26T08:23:14.408Z,71.97
2023-04-26T08:24:14.493Z,73.45
2023-04-26T08:25:14.511Z,73.97
2023-04-26T08:26:13.573Z,75.50
2023-04-26T08:27:14.592Z,75.82
2023-04-26T08:28:14.632Z,77.71
2023-04-26T08:29:14.718Z,72.83
2023-04-26T08:30:14.749Z,77.67
2023-04-26T08:31:16.990Z,80.34
2023-04-26T08:32:14.790Z,84.85
2023-04-26T08:33:14.807Z,83.82
2023-04-26T08:34:14.791Z,83.09
2023-04-26T08:35:14.789Z,84.29
2023-04-26T08:36:13.808Z,84.14
2023-04-26T08:37:14.776Z,86.70
2023-04-26T08:38:13.781Z,88.87
2023-04-26T08:39:13.766Z,89.21
2023-04-26T08:40:14.845Z,91.22
2023-04-26T08:41:13.752Z,88.52
2023-04-26T08:42:14.744Z,83.46
2023-04-26T08:43:13.732Z,85.43
2023-04-26T08:44:14.718Z,84.90
2023-04-26T08:45:14.724Z,84.19
2023-04-26T08:46:13.766Z,84.96
2023-04-26T08:47:14.917Z,86.81
2023-04-26T08:48:14.915Z,90.49
2023-04-26T08:49:14.693Z,92.84
2023-04-26T08:50:14.721Z,90.09
2023-04-26T08:51:13.679Z,98.18
2023-04-26T08:52:13.738Z,93.11
2023-04-26T08:53:14.666Z,96.40
2023-04-26T08:54:13.655Z,97.34
2023-04-26T08:55:14.658Z,99.47
2023-04-26T08:56:14.686Z,102.12
2023-04-26T08:57:14.661Z,98.60
2023-04-26T08:58:13.605Z,100.03
2023-04-26T08:59:15.187Z,104.30
2023-04-26T09:00:14.596Z,102.67
2023-04-26T09:01:14.702Z,102.51
2023-04-26T09:02:13.802Z,107.63
2023-04-26T09:03:14.235Z,108.06
2023-04-26T09:04:14.975Z,106.52
2023-04-26T09:05:14.998Z,109.56
2023-04-26T09:06:14.927Z,108.99
2023-04-26T09:07:15.002Z,110.01
2023-04-26T09:08:14.045Z,112.04
2023-04-26T09:09:14.121Z,108.84
2023-04-26T09:10:14.178Z,112.72
2023-04-26T09:11:15.251Z,112.14
2023-04-26T09:12:15.308Z,113.14
2023-04-26T09:13:14.454Z,111.71
2023-04-26T09:14:15.428Z,112.10
2023-04-26T09:15:14.511Z,110.38
2023-04-26T09:16:15.627Z,112.91
2023-04-26T09:17:16.434Z,113.08
2023-04-26T09:18:15.710Z,112.03
2023-04-26T09:19:15.762Z,116.74
2023-04-26T09:20:15.876Z,114.06
2023-04-26T09:21:15.856Z,116.22
2023-04-26T09:22:15.926Z,114.96
2023-04-26T09:23:16.009Z,116.93
2023-04-26T09:24:15.065Z,114.48
2023-04-26T09:25:15.148Z,117.16
2023-04-26T09:26:15.225Z,119.03
2023-04-26T09:27:16.212Z,118.47
2023-04-26T09:28:16.282Z,117.30
2023-04-26T09:29:15.332Z,116.63
2023-04-26T09:30:16.428Z,119.70
2023-04-26T09:31:16.505Z,117.64
2023-04-26T09:32:15.547Z,117.06
2023-04-26T09:33:16.629Z,118.23
2023-04-26T09:34:16.706Z,116.95
2023-04-26T09:35:16.700Z,117.74
2023-04-26T09:36:16.777Z,116.41
2023-04-26T09:37:16.833Z,120.72
2023-04-26T09:38:16.886Z,117.92
2023-04-26T09:39:16.984Z,118.52
2023-04-26T09:40:17.008Z,118.96
2023-04-26T09:41:16.085Z,119.44
2023-04-26T09:42:16.196Z,118.10
2023-04-26T09:43:16.224Z,118.00
2023-04-26T09:44:17.274Z,119.58
2023-04-26T09:45:17.319Z,119.75
2023-04-26T09:46:16.410Z,117.30
2023-04-26T09:47:17.434Z,119.17
2023-04-26T09:48:16.559Z,117.13
2023-04-26T09:49:17.950Z,119.29
2023-04-26T09:50:17.661Z,115.31
2023-04-26T09:51:17.696Z,117.36
2023-04-26T09:52:17.788Z,115.01
2023-04-26T09:53:17.830Z,116.45
2023-04-26T09:54:16.870Z,120.31
2023-04-26T09:55:31.170Z,119.22
2023-04-26T09:56:17.985Z,119.46
2023-04-26T09:57:17.889Z,120.15
2023-04-26T09:58:16.853Z,121.76
2023-04-26T09:59:16.895Z,123.59
2023-04-26T10:00:16.855Z,128.24
2023-04-26T10:01:18.017Z,128.27
2023-04-26T10:02:17.896Z,137.38
2023-04-26T10:03:16.944Z,136.25
2023-04-26T10:04:17.926Z,141.18
2023-04-26T10:05:17.816Z,138.92
2023-04-26T10:06:16.838Z,143.18
2023-04-26T10:07:17.871Z,141.25
2023-04-26T10:08:17.896Z,143.93
2023-04-26T10:09:19.007Z,145.11
2023-04-26T10:10:18.076Z,144.82
2023-04-26T10:11:18.058Z,147.38
2023-04-26T10:12:17.100Z,147.80
2023-04-26T10:13:18.218Z,150.23
2023-04-26T10:14:18.187Z,145.87
2023-04-26T10:15:18.218Z,152.28
2023-04-26T10:16:18.379Z,153.37
2023-04-26T10:17:18.300Z,153.65
2023-04-26T10:18:18.388Z,154.15
2023-04-26T10:19:17.623Z,155.51
2023-04-26T10:20:17.537Z,155.14
2023-04-26T10:21:18.475Z,156.98
2023-04-26T10:22:18.563Z,154.56
2023-04-26T10:23:18.897Z,157.63
2023-04-26T10:24:33.123Z,163.11
2023-04-26T10:25:18.692Z,163.83
2023-04-26T10:26:18.593Z,165.48
2023-04-26T10:27:17.548Z,166.75
2023-04-26T10:28:17.601Z,167.06
2023-04-26T10:29:18.575Z,171.05
2023-04-26T10:30:18.552Z,175.85
2023-04-26T10:31:17.565Z,178.67
2023-04-26T10:32:18.661Z,174.16
2023-04-26T10:33:17.597Z,173.33
2023-04-26T10:34:18.665Z,175.33
2023-04-26T10:35:17.534Z,177.70
2023-04-26T10:36:17.504Z,176.23
2023-04-26T10:37:18.504Z,178.17
2023-04-26T10:38:17.513Z,180.10
2023-04-26T10:39:18.503Z,183.61
2023-04-26T10:40:18.583Z,185.28
2023-04-26T10:41:18.472Z,182.97
2023-04-26T10:42:18.463Z,186.28
2023-04-26T10:43:18.492Z,183.67
2023-04-26T10:44:17.480Z,183.19
2023-04-26T10:45:18.451Z,177.46
2023-04-26T10:46:18.500Z,154.72
2023-04-26T10:47:18.490Z,161.57
2023-04-26T10:48:18.513Z,167.63
2023-04-26T10:49:17.424Z,151.44
2023-04-26T10:50:18.579Z,161.24
2023-04-26T10:51:18.413Z,154.31
2023-04-26T10:52:18.451Z,135.70
2023-04-26T10:53:17.443Z,120.73
2023-04-26T10:54:18.430Z,114.55
2023-04-26T10:55:18.382Z,105.69
2023-04-26T10:56:18.369Z,112.33
2023-04-26T10:57:17.390Z,89.35
2023-04-26T10:58:32.135Z,91.27
2023-04-26T10:59:36.113Z,91.56
2023-04-26T11:00:18.388Z,91.17
2023-04-26T11:01:18.418Z,83.55
2023-04-26T11:02:19.515Z,74.06
2023-04-26T11:03:17.505Z,68.66
2023-04-26T11:04:18.492Z,30.49
2023-04-26T11:05:17.349Z,57.57
2023-04-26T11:06:18.590Z,27.70
2023-04-26T11:07:18.331Z,58.64
2023-04-26T11:08:18.351Z,40.88
2023-04-26T11:09:18.341Z,48.52
2023-04-26T11:10:18.373Z,50.13
2023-04-26T11:11:19.003Z,50.08
2023-04-26T11:12:18.324Z,35.45
2023-04-26T11:13:18.289Z,29.91
2023-04-26T11:14:18.299Z,28.64
2023-04-26T11:15:20.006Z,33.27
2023-04-26T11:16:18.561Z,25.07
2023-04-26T11:17:18.548Z,30.81
2023-04-26T11:18:18.597Z,31.75
2023-04-26T11:19:17.583Z,26.52
2023-04-26T11:20:18.705Z,34.69
2023-04-26T11:21:17.768Z,17.36
2023-04-26T11:22:17.793Z,31.16
2023-04-26T11:23:18.844Z,39.54
2023-04-26T11:24:18.868Z,35.64
2023-04-26T11:25:18.930Z,22.60
2023-04-26T11:26:18.966Z,25.00
2023-04-26T11:27:18.975Z,60.11
2023-04-26T11:28:17.983Z,67.59
2023-04-26T11:29:17.996Z,71.27
2023-04-26T11:30:19.158Z,64.77
2023-04-26T11:31:19.288Z,33.66
2023-04-26T11:32:17.994Z,0.00
2023-04-26T11:33:18.042Z,36.44
2023-04-26T11:34:18.079Z,68.76
2023-04-26T11:35:19.169Z,91.31
2023-04-26T11:36:19.135Z,84.78
2023-04-26T11:37:19.131Z,86.27
2023-04-26T11:38:18.190Z,87.86
2023-04-26T11:39:18.204Z,87.35
2023-04-26T11:40:19.272Z,88.66
2023-04-26T11:41:19.317Z,93.55
2023-04-26T11:42:19.533Z,99.58
2023-04-26T11:43:18.474Z,105.08
2023-04-26T11:44:18.484Z,110.50
2023-04-26T11:45:18.510Z,113.02
2023-04-26T11:46:19.615Z,116.32
2023-04-26T11:47:19.592Z,129.83
2023-04-26T11:48:19.717Z,134.72
2023-04-26T11:49:18.654Z,138.86
2023-04-26T11:50:18.742Z,140.85
2023-04-26T11:51:19.747Z,143.18
2023-04-26T11:52:18.796Z,140.24
2023-04-26T11:53:19.830Z,146.23
2023-04-26T11:54:19.866Z,148.93
2023-04-26T11:55:18.893Z,149.19
2023-04-26T11:56:19.987Z,152.07
2023-04-26T11:57:18.971Z,152.82
2023-04-26T11:58:19.157Z,149.77
2023-04-26T11:59:20.048Z,155.00
2023-04-26T12:00:19.108Z,156.66
2023-04-26T12:01:20.152Z,158.92
2023-04-26T12:02:20.269Z,155.97
2023-04-26T12:03:20.565Z,157.49
2023-04-26T12:04:19.428Z,161.26
2023-04-26T12:05:19.385Z,167.15
2023-04-26T12:06:20.351Z,163.19
2023-04-26T12:07:19.408Z,166.57
2023-04-26T12:08:19.450Z,166.43
2023-04-26T12:09:20.512Z,167.87
2023-04-26T12:10:19.575Z,168.08
2023-04-26T12:11:19.591Z,171.41
2023-04-26T12:12:20.652Z,171.79
2023-04-26T12:13:20.699Z,173.56
2023-04-26T12:14:20.823Z,169.82
2023-04-26T12:15:20.809Z,174.67
2023-04-26T12:16:26.438Z,173.66
2023-04-26T12:17:20.958Z,174.02
2023-04-26T12:18:20.942Z,175.23
2023-04-26T12:19:19.840Z,177.19
2023-04-26T12:20:20.815Z,178.30
2023-04-26T12:21:20.843Z,183.40
2023-04-26T12:22:20.817Z,181.06
2023-04-26T12:23:20.792Z,184.80
2023-04-26T12:24:20.879Z,186.03
2023-04-26T12:25:20.802Z,184.82
2023-04-26T12:26:20.803Z,186.90
2023-04-26T12:27:20.766Z,188.79
2023-04-26T12:28:19.788Z,186.67
2023-04-26T12:29:19.783Z,187.77
2023-04-26T12:30:20.778Z,189.06
2023-04-26T12:31:20.786Z,193.52
2023-04-26T12:32:22.467Z,193.29
2023-04-26T12:33:20.846Z,193.78
2023-04-26T12:34:20.731Z,193.37
2023-04-26T12:35:20.727Z,193.93
2023-04-26T12:36:20.702Z,193.67
2023-04-26T12:37:20.716Z,195.48
2023-04-26T12:38:20.691Z,193.88
2023-04-26T12:39:20.702Z,195.57
2023-04-26T12:40:20.749Z,195.23
2023-04-26T12:41:20.699Z,194.62
2023-04-26T12:42:20.669Z,197.73
2023-04-26T12:43:20.660Z,197.11
2023-04-26T12:44:22.510Z,195.08
2023-04-26T12:45:20.646Z,195.30
2023-04-26T12:46:20.692Z,196.03
2023-04-26T12:47:20.679Z,197.02
2023-04-26T12:48:20.836Z,200.40
2023-04-26T12:49:20.634Z,202.27
2023-04-26T12:50:20.619Z,202.59
2023-04-26T12:51:20.604Z,202.26
2023-04-26T12:52:20.585Z,202.18
2023-04-26T12:53:20.587Z,201.94
2023-04-26T12:54:19.649Z,204.71
2023-04-26T12:55:19.600Z,202.77
2023-04-26T12:56:20.573Z,204.31
2023-04-26T12:57:20.576Z,203.91
2023-04-26T12:58:19.556Z,203.70
2023-04-26T12:59:20.563Z,204.22
2023-04-26T13:00:19.558Z,211.46
2023-04-26T13:01:20.680Z,207.68
2023-04-26T13:02:20.628Z,204.97
2023-04-26T13:03:20.683Z,205.89
2023-04-26T13:04:20.777Z,206.25
2023-04-26T13:05:19.517Z,208.81
2023-04-26T13:06:19.511Z,205.40
2023-04-26T13:07:20.513Z,206.32
2023-04-26T13:08:19.510Z,207.67
2023-04-26T13:09:20.522Z,208.37
2023-04-26T13:10:20.500Z,209.99
2023-04-26T13:11:20.477Z,211.15
2023-04-26T13:12:20.450Z,209.95
2023-04-26T13:13:22.051Z,210.51
2023-04-26T13:14:20.460Z,210.69
2023-04-26T13:15:20.436Z,211.06
2023-04-26T13:16:20.495Z,211.26
2023-04-26T13:17:19.443Z,211.58
2023-04-26T13:18:20.450Z,211.95
2023-04-26T13:19:20.404Z,213.42
2023-04-26T13:20:19.443Z,213.86
2023-04-26T13:21:19.414Z,212.86
2023-04-26T13:22:20.394Z,211.34
2023-04-26T13:23:20.393Z,213.73
2023-04-26T13:24:19.453Z,212.70
2023-04-26T13:25:20.377Z,212.16
2023-04-26T13:26:19.379Z,212.69
2023-04-26T13:27:20.355Z,213.46
2023-04-26T13:28:20.406Z,208.46
2023-04-26T13:29:20.336Z,213.28
2023-04-26T13:30:20.353Z,214.19
2023-04-26T13:31:20.443Z,213.87
2023-04-26T13:32:19.350Z,211.73
2023-04-26T13:33:20.341Z,212.00
2023-04-26T13:34:20.424Z,215.37
2023-04-26T13:35:20.319Z,215.00
2023-04-26T13:36:20.293Z,212.19
2023-04-26T13:37:20.046Z,212.54
2023-04-26T13:38:19.343Z,212.81
2023-04-26T13:39:20.341Z,214.59
2023-04-26T13:40:19.397Z,216.01
2023-04-26T13:41:20.412Z,217.77
2023-04-26T13:42:19.411Z,216.49
2023-04-26T13:43:19.497Z,215.06
2023-04-26T13:44:19.484Z,213.92
2023-04-26T13:45:20.536Z,217.74
2023-04-26T13:46:20.625Z,215.49
2023-04-26T13:47:19.587Z,218.72
2023-04-26T13:48:19.603Z,212.86
2023-04-26T13:49:20.607Z,215.43
2023-04-26T13:50:20.764Z,215.46
2023-04-26T13:51:19.659Z,215.12
2023-04-26T13:52:19.693Z,217.84
2023-04-26T13:53:20.724Z,213.20
2023-04-26T13:54:20.762Z,214.80
2023-04-26T13:55:20.829Z,213.93
2023-04-26T13:56:19.818Z,210.51
2023-04-26T13:57:20.829Z,213.26
2023-04-26T13:58:19.872Z,215.66
2023-04-26T13:59:19.888Z,215.91
2023-04-26T14:00:19.937Z,214.57
2023-04-26T14:01:20.057Z,216.75
2023-04-26T14:02:21.233Z,215.05
2023-04-26T14:03:21.242Z,212.26
2023-04-26T14:04:21.143Z,217.03
2023-04-26T14:05:23.425Z,215.79
2023-04-26T14:06:20.087Z,218.42
2023-04-26T14:07:21.071Z,220.51
2023-04-26T14:08:21.063Z,218.32
2023-04-26T14:09:21.085Z,213.08
2023-04-26T14:10:20.042Z,215.90
2023-04-26T14:11:21.032Z,215.01
2023-04-26T14:12:21.031Z,216.48
2023-04-26T14:13:20.020Z,211.51
2023-04-26T14:14:21.053Z,214.38
2023-04-26T14:15:21.014Z,216.29
2023-04-26T14:16:20.065Z,215.59
2023-04-26T14:17:20.995Z,216.22
2023-04-26T14:18:19.984Z,212.76
2023-04-26T14:19:20.969Z,215.51
2023-04-26T14:20:20.034Z,213.75
2023-04-26T14:21:19.984Z,213.78
2023-04-26T14:22:20.967Z,215.23
2023-04-26T14:23:20.959Z,213.56
2023-04-26T14:24:19.947Z,216.50
2023-04-26T14:25:20.105Z,214.87
2023-04-26T14:26:19.928Z,217.42
2023-04-26T14:27:19.920Z,212.22
2023-04-26T14:28:20.943Z,214.52
2023-04-26T14:29:19.912Z,213.25
2023-04-26T14:30:19.925Z,214.06
2023-04-26T14:31:20.925Z,218.20
2023-04-26T14:32:19.899Z,215.42
2023-04-26T14:33:22.097Z,214.48
2023-04-26T14:34:20.876Z,214.64
2023-04-26T14:35:20.082Z,214.74
2023-04-26T14:36:20.883Z,214.87
2023-04-26T14:37:20.931Z,216.03
2023-04-26T14:38:20.860Z,216.41
2023-04-26T14:39:21.686Z,212.78
2023-04-26T14:40:20.893Z,212.97
2023-04-26T14:42:43.153Z,25.00
2023-04-26T14:45:02.130Z,25.00
2023-04-26T14:47:18.644Z,25.00
2023-04-26T14:51:10.425Z,25.00
2023-04-26T14:53:36.870Z,25.00
2023-04-26T14:54:28.952Z,25.00
2023-04-26T14:58:19.384Z,25.00
2023-04-26T15:00:49.573Z,25.00
2023-04-26T15:03:11.375Z,25.00
2023-04-26T15:07:02.088Z,25.00
2023-04-26T15:10:56.452Z,25.00
2023-04-26T15:13:20.845Z,25.00
2023-04-26T15:16:33.689Z,25.00
2023-04-26T15:20:13.659Z,25.00
2023-04-26T15:22:38.521Z,25.00
2023-04-26T15:23:38.295Z,25.00
2023-04-26T15:25:58.589Z,25.00
2023-04-26T15:28:17.913Z,25.00
